createdAt,value
2023-04-16T08:00:37.359Z,99853.25
2023-04-16T08:03:06.943Z,99862.44
2023-04-16T08:05:36.148Z,99851.09
2023-04-16T08:08:23.695Z,99866.28
2023-04-16T08:10:56.183Z,99855.66
2023-04-16T08:13:25.701Z,99866.09
2023-04-16T08:15:56.291Z,99864.03
2023-04-16T08:18:25.678Z,99873.34
2023-04-16T08:20:54.786Z,99860.94
2023-04-16T08:23:23.927Z,99870.19
2023-04-16T08:26:11.958Z,99884.72
2023-04-16T08:28:41.067Z,99855.13
2023-04-16T08:31:11.713Z,99835.19
2023-04-16T08:33:42.201Z,99855.91
2023-04-16T08:36:28.732Z,99873.78
2023-04-16T08:38:57.874Z,99892.78
2023-04-16T08:41:45.819Z,99879.19
2023-04-16T08:44:22.543Z,99874.91
2023-04-16T08:46:57.764Z,99885.72
2023-04-16T08:49:27.796Z,99878.28
2023-04-16T08:51:58.041Z,99884.28
2023-04-16T08:54:36.562Z,99881.66
2023-04-16T08:57:25.851Z,99876.75
2023-04-16T08:59:56.655Z,99877.28
2023-04-16T09:02:46.126Z,99887.63
2023-04-16T09:05:34.717Z,99889.50
2023-04-16T09:08:21.034Z,99888.91
2023-04-16T09:10:50.911Z,99887.41
2023-04-16T09:13:21.030Z,99887.94
2023-04-16T09:16:09.570Z,99897.72
2023-04-16T09:19:15.330Z,99897.50
2023-04-16T09:22:04.484Z,99887.25
2023-04-16T09:24:34.307Z,99896.25
2023-04-16T09:27:04.269Z,99896.50
2023-04-16T09:29:37.876Z,99893.88
2023-04-16T09:32:08.330Z,99876.31
2023-04-16T09:34:58.019Z,99903.59
2023-04-16T09:37:28.095Z,99878.16
2023-04-16T09:39:59.110Z,99897.28
2023-04-16T09:42:30.023Z,99897.34
2023-04-16T09:45:01.310Z,99896.66
2023-04-16T09:47:42.575Z,99898.69
2023-04-16T09:50:18.598Z,99904.41
2023-04-16T09:52:51.194Z,99914.31
2023-04-16T09:55:25.628Z,99895.56
2023-04-16T09:58:01.408Z,99899.56
2023-04-16T10:00:49.570Z,99896.78
2023-04-16T10:03:18.753Z,99914.09
2023-04-16T10:05:49.486Z,99890.78
2023-04-16T10:08:19.252Z,99907.59
2023-04-16T10:10:48.496Z,99916.25
2023-04-16T10:13:19.586Z,99921.97
2023-04-16T10:15:49.835Z,99914.78
2023-04-16T10:18:19.891Z,99920.75
2023-04-16T10:20:50.866Z,99926.91
2023-04-16T10:23:21.328Z,99920.81
2023-04-16T10:26:25.501Z,99925.28
2023-04-16T10:29:14.078Z,99929.09
2023-04-16T10:31:44.022Z,99940.59
2023-04-16T10:34:13.149Z,99915.75
2023-04-16T10:37:02.342Z,99944.44
2023-04-16T10:39:31.483Z,99943.97
2023-04-16T10:42:10.969Z,99940.44
2023-04-16T10:44:44.424Z,99934.91
2023-04-16T10:47:15.673Z,99938.53
2023-04-16T10:49:50.037Z,99942.16
2023-04-16T10:52:22.841Z,99941.34
2023-04-16T10:54:56.118Z,99930.13
2023-04-16T10:57:25.196Z,99953.78
2023-04-16T11:00:13.786Z,99944.47
2023-04-16T11:02:44.171Z,99944.16
2023-04-16T11:05:15.082Z,99942.75
2023-04-16T11:07:50.831Z,99948.75
2023-04-16T11:10:36.868Z,99952.53
2023-04-16T11:13:25.973Z,99958.06
2023-04-16T11:15:59.669Z,99957.41
2023-04-16T11:18:29.260Z,99964.34
2023-04-16T11:21:02.222Z,99968.00
2023-04-16T11:23:32.846Z,99976.72
2023-04-16T11:26:02.452Z,99960.97
2023-04-16T11:28:36.302Z,99954.47
2023-04-16T11:31:13.662Z,99963.78
2023-04-16T11:33:44.295Z,99981.03
2023-04-16T11:36:13.428Z,99980.44
2023-04-16T11:39:05.553Z,99968.97
2023-04-16T11:41:34.808Z,99977.53
2023-04-16T11:44:36.400Z,99970.38
2023-04-16T11:47:08.672Z,99974.13
2023-04-16T11:49:44.115Z,99995.50
2023-04-16T11:52:13.363Z,99981.69
2023-04-16T11:54:43.954Z,99976.81
2023-04-16T11:57:13.788Z,99990.69
2023-04-16T12:00:02.314Z,99980.00
2023-04-16T12:02:40.451Z,99985.13
2023-04-16T12:05:45.129Z,99958.94
2023-04-16T12:08:30.382Z,99995.44
2023-04-16T12:11:19.212Z,99941.66
2023-04-16T12:14:26.475Z,99944.84
2023-04-16T12:16:55.700Z,99991.38
2023-04-16T12:19:43.274Z,99990.16
2023-04-16T12:22:18.000Z,99962.97
2023-04-16T12:25:05.501Z,99956.53
2023-04-16T12:27:53.768Z,99975.66
2023-04-16T12:30:24.831Z,99983.47
2023-04-16T12:33:12.449Z,100008.81
2023-04-16T12:35:42.412Z,99996.19
2023-04-16T12:38:28.607Z,100012.88
2023-04-16T12:40:58.773Z,100008.59
2023-04-16T12:43:31.091Z,100019.84
2023-04-16T12:46:01.671Z,100028.66
2023-04-16T12:48:32.826Z,100043.50
2023-04-16T12:51:19.167Z,100042.16
2023-04-16T12:54:06.271Z,100050.25
2023-04-16T12:56:36.247Z,100058.72
2023-04-16T12:59:06.970Z,100061.72
2023-04-16T13:01:53.328Z,100061.22
2023-04-16T13:04:41.061Z,100078.00
2023-04-16T13:07:12.669Z,100030.56
2023-04-16T13:09:41.905Z,100025.63
2023-04-16T13:12:28.286Z,100034.38
2023-04-16T13:14:59.062Z,100070.84
2023-04-16T13:17:28.282Z,100082.22
2023-04-16T13:19:57.461Z,100062.34
2023-04-16T13:23:03.834Z,100079.75
2023-04-16T13:25:33.136Z,100091.94
2023-04-16T13:28:02.302Z,100087.63
2023-04-16T13:30:51.334Z,100092.00
2023-04-16T13:33:37.501Z,100076.41
2023-04-16T13:36:27.490Z,100100.69
2023-04-16T13:38:56.880Z,100064.31
2023-04-16T13:41:27.911Z,100085.97
2023-04-16T13:43:57.028Z,100096.38
2023-04-16T13:46:27.709Z,100109.34
2023-04-16T13:49:17.033Z,100093.78
2023-04-16T13:51:46.269Z,100112.00
2023-04-16T13:54:52.022Z,100116.34
2023-04-16T13:57:21.570Z,100126.72
2023-04-16T13:59:50.788Z,100118.06
2023-04-16T14:02:23.988Z,100107.66
2023-04-16T14:04:53.169Z,100123.25
2023-04-16T14:07:26.146Z,100114.56
2023-04-16T14:09:55.457Z,100118.03
2023-04-16T14:12:42.983Z,100121.50
2023-04-16T14:15:15.074Z,100109.34
2023-04-16T14:17:46.329Z,100116.28
2023-04-16T14:20:16.341Z,100121.47
2023-04-16T14:22:47.051Z,100119.75
2023-04-16T14:25:22.322Z,100121.44
2023-04-16T14:28:12.244Z,100113.63
2023-04-16T14:30:51.771Z,100118.84
2023-04-16T14:33:24.665Z,100117.09
2023-04-16T14:35:56.431Z,100112.75
2023-04-16T14:38:26.560Z,100116.22
2023-04-16T14:41:17.291Z,100111.03
2023-04-16T14:43:49.287Z,100111.88
2023-04-16T14:46:18.954Z,100109.28
2023-04-16T14:48:52.612Z,100078.91
2023-04-16T14:51:39.105Z,100117.91
2023-04-16T14:54:08.353Z,100104.03
2023-04-16T14:56:37.552Z,100097.97
2023-04-16T14:59:25.003Z,100109.22
2023-04-16T15:01:55.058Z,100118.78
2023-04-16T15:04:46.693Z,100091.00
2023-04-16T15:07:34.296Z,100117.91
2023-04-16T15:10:39.077Z,100117.06
2023-04-16T15:13:08.207Z,100117.91
2023-04-16T15:15:38.067Z,100126.53
2023-04-16T15:18:10.341Z,100107.44
2023-04-16T15:20:43.052Z,100105.69
2023-04-16T15:23:13.724Z,100119.59
2023-04-16T15:25:42.887Z,100117.88
2023-04-16T15:28:15.118Z,100123.94
2023-04-16T15:31:02.962Z,100114.41
2023-04-16T15:33:32.286Z,100110.03
2023-04-16T15:36:02.861Z,100114.34
2023-04-16T15:38:32.150Z,100096.09
2023-04-16T15:41:03.530Z,100130.75
2023-04-16T15:43:32.703Z,100123.81
2023-04-16T15:46:37.438Z,100125.50
2023-04-16T15:49:06.917Z,100117.66
2023-04-16T15:51:37.495Z,100114.19
2023-04-16T15:54:06.873Z,100109.84
2023-04-16T15:56:56.212Z,100122.78
2023-04-16T15:59:25.327Z,100111.47
2023-04-16T16:02:31.599Z,100139.19
2023-04-16T16:05:01.406Z,100121.84
2023-04-16T16:07:32.133Z,100103.63
2023-04-16T16:10:18.285Z,100124.44
2023-04-16T16:12:49.702Z,100118.38
2023-04-16T16:15:18.853Z,100133.09
2023-04-16T16:17:50.678Z,100128.78
2023-04-16T16:20:31.897Z,100133.13
2023-04-16T16:23:02.866Z,100130.53
2023-04-16T16:25:31.940Z,100133.22
2023-04-16T16:28:00.972Z,100130.69
2023-04-16T16:30:30.177Z,100130.72
2023-04-16T16:33:17.559Z,100129.91
2023-04-16T16:35:50.530Z,100076.19
2023-04-16T16:38:21.340Z,100068.44
2023-04-16T16:41:07.403Z,100118.72
2023-04-16T16:43:37.664Z,100071.91
2023-04-16T16:46:08.003Z,100119.53
2023-04-16T16:48:37.177Z,100124.72
2023-04-16T16:51:23.627Z,100116.03
2023-04-16T16:53:54.872Z,100006.75
2023-04-16T16:56:24.060Z,100116.91
2023-04-16T16:59:14.035Z,100110.84
2023-04-16T17:02:00.026Z,100033.59
2023-04-16T17:04:29.443Z,99970.34
2023-04-16T17:06:58.835Z,100052.66
2023-04-16T17:09:31.830Z,100121.19
2023-04-16T17:12:01.303Z,100092.56
2023-04-16T17:14:30.604Z,100034.63
2023-04-16T17:17:02.770Z,100097.03
2023-04-16T17:19:32.106Z,100095.34
2023-04-16T17:22:03.316Z,100011.28
2023-04-16T17:24:34.109Z,99960.16
2023-04-16T17:27:21.974Z,100085.00
2023-04-16T17:30:11.821Z,99989.66
2023-04-16T17:32:41.198Z,99999.16
2023-04-16T17:35:11.472Z,99945.41
2023-04-16T17:38:01.321Z,100031.28
2023-04-16T17:40:32.213Z,99992.22
2023-04-16T17:43:01.446Z,99993.97
2023-04-16T17:45:30.622Z,100096.25
2023-04-16T17:47:59.950Z,99956.78
2023-04-16T17:50:29.362Z,99939.44
2023-04-16T17:53:03.950Z,100040.81
2023-04-16T17:55:34.737Z,100060.75
2023-04-16T17:58:04.747Z,99954.16
2023-04-16T18:00:34.003Z,99935.94
2023-04-16T18:03:03.359Z,99941.13
2023-04-16T18:05:33.067Z,99929.00
2023-04-16T18:08:20.860Z,99967.06
2023-04-16T18:10:51.687Z,99986.84
2023-04-16T18:13:21.015Z,99948.69
2023-04-16T18:15:50.285Z,99981.50
2023-04-16T18:18:37.436Z,99985.81
2023-04-16T18:21:23.749Z,99972.84
2023-04-16T18:24:11.621Z,100037.75
2023-04-16T18:26:46.101Z,99908.53
2023-04-16T18:29:17.826Z,99897.25
2023-04-16T18:31:47.604Z,99975.19
2023-04-16T18:34:16.994Z,99898.88
2023-04-16T18:36:46.203Z,100018.47
2023-04-16T18:39:34.436Z,100002.88
2023-04-16T18:42:23.985Z,99923.94
2023-04-16T18:44:54.222Z,99958.50
2023-04-16T18:47:23.590Z,99819.66
2023-04-16T18:49:52.984Z,99898.56
2023-04-16T18:52:22.300Z,99843.22
2023-04-16T18:54:51.650Z,99967.13
2023-04-16T18:57:22.392Z,99967.13
2023-04-16T19:00:13.061Z,99935.03
2023-04-16T19:03:00.568Z,99856.16
2023-04-16T19:05:29.913Z,99994.81
2023-04-16T19:07:59.592Z,99950.66
2023-04-16T19:10:28.985Z,99853.56
2023-04-16T19:12:59.998Z,99979.28
2023-04-16T19:15:31.190Z,99936.75
2023-04-16T19:18:02.126Z,99928.09
2023-04-16T19:20:31.430Z,99892.47
2023-04-16T19:23:00.649Z,99795.50
2023-04-16T19:25:46.648Z,99964.34
2023-04-16T19:28:17.512Z,99822.22
2023-04-16T19:30:47.172Z,99921.00
2023-04-16T19:33:16.452Z,99879.25
2023-04-16T19:35:45.816Z,99927.81
2023-04-16T19:38:15.306Z,99907.03
2023-04-16T19:40:47.087Z,99901.81
2023-04-16T19:43:17.848Z,99980.63
2023-04-16T19:45:47.322Z,99867.91
2023-04-16T19:48:16.794Z,99799.53
2023-04-16T19:51:03.132Z,99872.25
2023-04-16T19:53:49.166Z,99872.31
2023-04-16T19:56:18.469Z,99898.28
2023-04-16T19:58:49.293Z,99959.81
2023-04-16T20:01:53.276Z,99943.38
2023-04-16T20:04:22.723Z,99920.78
2023-04-16T20:06:52.112Z,99782.06
2023-04-16T20:09:21.580Z,99809.53
2023-04-16T20:11:51.074Z,99770.81
2023-04-16T20:14:40.570Z,99943.19
2023-04-16T20:17:28.375Z,99927.69
2023-04-16T20:20:01.262Z,99778.53
2023-04-16T20:22:30.596Z,99902.50
2023-04-16T20:24:59.913Z,99813.22
2023-04-16T20:27:29.333Z,99797.25
2023-04-16T20:30:00.371Z,99869.50
2023-04-16T20:32:30.048Z,99811.44
2023-04-16T20:35:17.339Z,99750.88
2023-04-16T20:37:47.048Z,99793.28
2023-04-16T20:40:16.934Z,99753.50
2023-04-16T20:42:47.876Z,99883.59
2023-04-16T20:45:19.014Z,99751.91
2023-04-16T20:48:06.450Z,99888.09
2023-04-16T20:50:35.761Z,99851.66
2023-04-16T20:53:23.121Z,99876.09
2023-04-16T20:55:52.383Z,99777.28
2023-04-16T20:58:21.565Z,99810.41
2023-04-16T21:00:56.015Z,99741.94
2023-04-16T21:03:25.477Z,99731.59
2023-04-16T21:05:57.104Z,99729.25
2023-04-16T21:08:26.570Z,99766.50
2023-04-16T21:10:55.957Z,99768.38
2023-04-16T21:13:42.645Z,99828.09
2023-04-16T21:16:32.021Z,99724.34
2023-04-16T21:19:01.442Z,99642.28
2023-04-16T21:21:30.828Z,99645.66
2023-04-16T21:24:00.545Z,99794.69
2023-04-16T21:26:29.890Z,99771.25
2023-04-16T21:28:59.205Z,99788.59
2023-04-16T21:31:30.134Z,99704.75
2023-04-16T21:33:59.505Z,99649.44
2023-04-16T21:36:29.687Z,99795.69
2023-04-16T21:38:58.927Z,99675.44
2023-04-16T21:41:28.316Z,99713.53
2023-04-16T21:44:16.747Z,99771.56
2023-04-16T21:47:06.036Z,99771.56
2023-04-16T21:49:35.354Z,99663.47
2023-04-16T21:52:04.627Z,99603.81
2023-04-16T21:54:33.945Z,99660.88
2023-04-16T21:57:21.581Z,99622.06
2023-04-16T21:59:50.910Z,99761.19
2023-04-16T22:02:40.113Z,99691.13
2023-04-16T22:05:27.703Z,99719.72
2023-04-16T22:07:57.167Z,99729.19
2023-04-16T22:10:26.522Z,99681.59
2023-04-16T22:13:14.377Z,99716.22
2023-04-16T22:16:03.101Z,99685.91
2023-04-16T22:18:52.438Z,99624.50
2023-04-16T22:21:21.730Z,99544.03
2023-04-16T22:24:08.183Z,99704.13
2023-04-16T22:26:37.493Z,99571.84
2023-04-16T22:29:06.979Z,99623.63
2023-04-16T22:31:36.554Z,99570.13
2023-04-16T22:34:07.451Z,99708.44
2023-04-16T22:36:54.618Z,99618.53
2023-04-16T22:39:59.223Z,99684.25
2023-04-16T22:42:29.062Z,99664.28
2023-04-16T22:45:15.599Z,99593.31
2023-04-16T22:47:44.965Z,99602.06
2023-04-16T22:50:15.800Z,99534.66
2023-04-16T22:52:45.152Z,99640.09
2023-04-16T22:55:32.572Z,99652.22
2023-04-16T22:58:01.866Z,99511.22
2023-04-16T23:00:31.134Z,99596.81
2023-04-16T23:03:00.538Z,99441.28
2023-04-16T23:05:31.795Z,99641.81
2023-04-16T23:08:01.574Z,99634.88
2023-04-16T23:10:30.900Z,99521.72
2023-04-16T23:13:18.385Z,99537.34
2023-04-16T23:15:47.799Z,99617.75
2023-04-16T23:18:17.374Z,99559.91
2023-04-16T23:20:48.145Z,99626.44
2023-04-16T23:23:17.460Z,99512.28
2023-04-16T23:25:46.908Z,99534.00
2023-04-16T23:28:16.278Z,99635.91
2023-04-16T23:30:45.636Z,99508.09
2023-04-16T23:33:33.460Z,99602.28
2023-04-16T23:36:04.216Z,99439.06
2023-04-16T23:38:51.587Z,99592.00
2023-04-16T23:41:20.959Z,99536.75
2023-04-16T23:43:50.245Z,99577.31
2023-04-16T23:46:19.543Z,99501.34
2023-04-16T23:49:06.691Z,99523.81
2023-04-16T23:51:55.347Z,99487.59
2023-04-16T23:54:24.756Z,99531.66
2023-04-16T23:56:53.972Z,99407.31
2023-04-16T23:59:23.335Z,99557.53
